Time;durP1;ratioP1;P1;durP2;ratioP2;P2;SDS_P1;SDS_P2;PMS_P1;PMS_P2;Temp;Humidity;BMP_temperature;BMP_pressure;BME280_temperature;BME280_humidity;BME280_pressure;Samples;Min_cycle;Max_cycle;Signal;HPM_P1;HPM_P2
2023/02/04 00:00:55;;;;;;;6.20;2.72;;;8.60;99.90;;;;;;5093136;28;20031;-70
2023/02/04 00:03:21;;;;;;;3.25;2.53;;;8.60;99.90;;;;;;5086552;28;20055;-71
2023/02/04 00:05:46;;;;;;;4.90;2.80;;;8.60;99.90;;;;;;5076003;28;20110;-70
2023/02/04 00:08:12;;;;;;;5.18;2.45;;;8.60;99.90;;;;;;5074803;28;20024;-71
2023/02/04 00:10:38;;;;;;;5.40;3.00;;;8.60;99.90;;;;;;5093943;28;20032;-70
2023/02/04 00:13:03;;;;;;;7.38;3.45;;;8.60;99.90;;;;;;5075869;28;20484;-70
2023/02/04 00:15:29;;;;;;;4.30;2.70;;;8.60;99.90;;;;;;5074929;28;20032;-70
2023/02/04 00:17:55;;;;;;;6.00;3.28;;;8.60;99.90;;;;;;5093388;28;20048;-70
2023/02/04 00:20:21;;;;;;;4.78;2.60;;;8.60;99.90;;;;;;5092971;28;20447;-71
2023/02/04 00:22:47;;;;;;;5.88;2.92;;;8.60;99.90;;;;;;5093996;28;20031;-70
2023/02/04 00:25:13;;;;;;;5.80;2.90;;;8.60;99.90;;;;;;5074890;28;20525;-71
2023/02/04 00:27:38;;;;;;;4.32;2.97;;;8.60;99.90;;;;;;5093350;28;20036;-71
2023/02/04 00:30:05;;;;;;;4.13;2.65;;;8.60;99.90;;;;;;5093669;28;20035;-71
2023/02/04 00:32:30;;;;;;;3.83;2.95;;;8.60;99.90;;;;;;5092778;28;20115;-70
2023/02/04 00:34:56;;;;;;;10.00;3.30;;;8.60;99.90;;;;;;5075294;28;20078;-71
2023/02/04 00:37:22;;;;;;;7.78;3.88;;;8.60;99.90;;;;;;5074460;28;20032;-71
2023/02/04 00:39:47;;;;;;;6.93;3.20;;;8.60;99.90;;;;;;5075211;28;20062;-71
2023/02/04 00:42:13;;;;;;;6.75;3.55;;;8.60;99.90;;;;;;5074370;28;20035;-71
2023/02/04 00:44:38;;;;;;;5.72;3.15;;;8.60;99.90;;;;;;5075233;28;20028;-71
2023/02/04 00:47:04;;;;;;;6.50;3.20;;;8.60;99.90;;;;;;5074790;28;20487;-70
2023/02/04 00:49:30;;;;;;;6.00;2.85;;;8.50;99.90;;;;;;5092267;28;20032;-71
2023/02/04 00:51:56;;;;;;;6.30;3.45;;;8.50;99.90;;;;;;5093153;28;20531;-71
2023/02/04 00:54:21;;;;;;;6.15;3.55;;;8.50;99.90;;;;;;5074212;28;20024;-71
2023/02/04 00:56:47;;;;;;;7.13;3.25;;;8.50;99.90;;;;;;5093237;28;20059;-71
2023/02/04 00:59:13;;;;;;;6.28;3.22;;;8.50;99.90;;;;;;5074641;28;20384;-71
2023/02/04 01:01:39;;;;;;;7.13;3.25;;;8.40;99.90;;;;;;5092059;28;20099;-71
2023/02/04 01:04:04;;;;;;;5.40;3.38;;;8.50;99.90;;;;;;5074657;28;20541;-71
2023/02/04 01:06:30;;;;;;;5.35;3.45;;;8.50;99.90;;;;;;5091935;28;20020;-70
2023/02/04 01:08:56;;;;;;;6.72;3.53;;;8.50;99.90;;;;;;5074548;28;20032;-70
2023/02/04 01:11:21;;;;;;;5.63;3.60;;;8.50;99.90;;;;;;5092152;28;20054;-71
2023/02/04 01:13:47;;;;;;;6.82;3.72;;;8.50;99.90;;;;;;5074657;28;20024;-70
2023/02/04 01:16:13;;;;;;;5.80;3.40;;;8.50;99.90;;;;;;5092106;28;20527;-75
2023/02/04 01:18:39;;;;;;;9.45;4.72;;;8.50;99.90;;;;;;5092773;28;20059;-71
2023/02/04 01:21:05;;;;;;;5.00;3.38;;;8.50;99.90;;;;;;5092803;28;20071;-70
2023/02/04 01:23:31;;;;;;;6.70;3.60;;;8.50;99.90;;;;;;5073690;28;20165;-71
2023/02/04 01:25:56;;;;;;;8.00;4.20;;;8.50;99.90;;;;;;5074379;28;20518;-70
2023/02/04 01:28:22;;;;;;;12.05;4.57;;;8.50;99.90;;;;;;5073525;28;20028;-71
2023/02/04 01:30:48;;;;;;;7.65;4.03;;;8.50;99.90;;;;;;5092473;28;20066;-71
2023/02/04 01:33:13;;;;;;;5.60;3.60;;;8.50;99.90;;;;;;5073792;28;20039;-74
2023/02/04 01:35:39;;;;;;;8.13;4.32;;;8.50;99.90;;;;;;5092443;28;20035;-71
2023/02/04 01:38:04;;;;;;;9.13;4.13;;;8.50;99.90;;;;;;5074412;28;20096;-70
2023/02/04 01:40:30;;;;;;;7.88;4.32;;;8.50;99.90;;;;;;5073530;28;20027;-70
2023/02/04 01:42:56;;;;;;;8.00;4.32;;;8.50;99.90;;;;;;5074236;28;20024;-70
2023/02/04 01:45:22;;;;;;;10.98;4.30;;;8.50;99.90;;;;;;5091504;28;20358;-71
2023/02/04 01:47:47;;;;;;;6.50;3.95;;;8.50;99.90;;;;;;5074006;28;20066;-70
2023/02/04 01:50:15;;;;;;;6.22;4.07;;;8.50;99.90;;;;;;5073810;28;20072;-75
2023/02/04 01:52:43;;;;;;;7.45;3.80;;;8.50;99.90;;;;;;5074362;28;20020;-71
2023/02/04 01:55:17;;;;;;;7.05;4.05;;;8.50;99.90;;;;;;5092218;28;20145;-71
2023/02/04 01:57:43;;;;;;;6.45;4.05;;;8.50;99.90;;;;;;5092177;28;20116;-71
2023/02/04 02:00:14;;;;;;;8.80;4.00;;;8.50;99.90;;;;;;5074082;28;20031;-71
2023/02/04 02:02:51;;;;;;;9.70;4.20;;;8.50;99.90;;;;;;5073852;28;20120;-71
2023/02/04 02:05:24;;;;;;;7.45;4.45;;;8.50;99.90;;;;;;5073336;28;20070;-72
2023/02/04 02:07:52;;;;;;;7.25;4.50;;;8.50;99.90;;;;;;5092088;28;20110;-71
2023/02/04 02:10:18;;;;;;;7.82;4.20;;;8.60;99.90;;;;;;5091275;28;20086;-71
2023/02/04 02:12:45;;;;;;;8.15;4.60;;;8.60;99.90;;;;;;5073929;28;20024;-71
2023/02/04 02:15:12;;;;;;;7.95;4.60;;;8.60;99.90;;;;;;5077275;28;20024;-71
2023/02/04 02:17:38;;;;;;;7.22;4.40;;;8.60;99.90;;;;;;5076944;28;20031;-71
2023/02/04 02:20:07;;;;;;;7.95;4.07;;;8.60;99.90;;;;;;5077711;28;20094;-71
2023/02/04 02:22:36;;;;;;;9.38;4.65;;;8.60;99.90;;;;;;5095346;28;20074;-71
2023/02/04 02:25:08;;;;;;;7.60;4.57;;;8.50;99.90;;;;;;5077829;28;20119;-71
2023/02/04 02:27:34;;;;;;;7.78;4.40;;;8.60;99.90;;;;;;5095222;28;20085;-71
2023/02/04 02:30:00;;;;;;;6.72;4.60;;;8.60;99.90;;;;;;5077715;28;20032;-71
2023/02/04 02:32:25;;;;;;;8.00;4.18;;;8.60;99.90;;;;;;5076944;28;20110;-71
2023/02/04 02:34:51;;;;;;;9.13;4.93;;;8.60;99.90;;;;;;5095866;28;20097;-70
2023/02/04 02:37:16;;;;;;;6.90;4.30;;;8.60;99.90;;;;;;5077286;28;20024;-74
2023/02/04 02:39:44;;;;;;;8.85;4.47;;;8.50;99.90;;;;;;5095546;28;20028;-70
2023/02/04 02:42:14;;;;;;;7.45;4.60;;;8.50;99.90;;;;;;5077459;28;20043;-71
2023/02/04 02:44:40;;;;;;;9.50;4.75;;;8.60;99.90;;;;;;5076908;28;20028;-71
2023/02/04 02:47:10;;;;;;;7.97;4.32;;;8.50;99.90;;;;;;5095734;28;20505;-71
2023/02/04 02:49:38;;;;;;;6.80;4.15;;;8.50;99.90;;;;;;5076727;28;20036;-70
2023/02/04 02:52:04;;;;;;;6.53;4.28;;;8.50;99.90;;;;;;5077249;28;20185;-71
2023/02/04 02:54:30;;;;;;;4.00;2.92;;;8.50;99.90;;;;;;5076538;28;20517;-71
2023/02/04 02:56:57;;;;;;;4.15;2.30;;;8.60;99.90;;;;;;5076847;28;20124;-71
2023/02/04 02:59:24;;;;;;;3.92;2.38;;;8.60;99.90;;;;;;5094626;28;20024;-71
2023/02/04 03:01:56;;;;;;;4.80;2.00;;;8.60;99.90;;;;;;5095082;28;20049;-71
2023/02/04 03:04:23;;;;;;;5.93;2.00;;;8.60;99.90;;;;;;5076451;28;20479;-71
2023/02/04 03:06:49;;;;;;;4.05;2.30;;;8.60;99.90;;;;;;5095251;28;20031;-71
2023/02/04 03:09:15;;;;;;;5.43;2.42;;;8.60;99.90;;;;;;5095000;28;20036;-71
2023/02/04 03:11:41;;;;;;;2.83;1.92;;;8.60;99.90;;;;;;5094570;28;20024;-71
2023/02/04 03:14:07;;;;;;;6.15;2.30;;;8.60;99.90;;;;;;5077017;28;20111;-70
2023/02/04 03:16:35;;;;;;;4.40;2.05;;;8.60;99.90;;;;;;5094265;28;20027;-71
2023/02/04 03:19:02;;;;;;;4.35;1.75;;;8.50;99.90;;;;;;5095090;28;20385;-71
2023/02/04 03:21:28;;;;;;;5.78;1.58;;;8.50;99.90;;;;;;5075563;28;20135;-71
2023/02/04 03:23:55;;;;;;;3.35;1.90;;;8.40;99.90;;;;;;5094942;28;20421;-71
2023/02/04 03:26:22;;;;;;;4.15;1.70;;;8.40;99.90;;;;;;5075807;28;20028;-75
2023/02/04 03:28:48;;;;;;;5.93;1.63;;;8.40;99.90;;;;;;5076630;28;20024;-70
2023/02/04 03:31:14;;;;;;;4.50;1.90;;;8.50;99.90;;;;;;5076728;28;20035;-71
2023/02/04 03:33:41;;;;;;;6.38;1.65;;;8.50;99.90;;;;;;5094317;28;20568;-71
2023/02/04 03:36:07;;;;;;;4.95;1.60;;;8.40;99.90;;;;;;5076539;28;20054;-70
2023/02/04 03:38:33;;;;;;;5.40;1.33;;;8.40;99.90;;;;;;5093675;28;20028;-71
2023/02/04 03:40:59;;;;;;;4.93;1.52;;;8.40;99.90;;;;;;5076574;28;20020;-70
2023/02/04 03:43:25;;;;;;;7.47;1.77;;;8.40;99.90;;;;;;5075555;28;20025;-68
2023/02/04 03:45:50;;;;;;;4.70;1.58;;;8.40;99.90;;;;;;5076290;28;20020;-68
2023/02/04 03:48:16;;;;;;;7.18;1.60;;;8.40;99.90;;;;;;5094629;28;20040;-68
2023/02/04 03:50:42;;;;;;;6.45;1.40;;;8.40;99.90;;;;;;5093739;28;20508;-68
2023/02/04 03:53:08;;;;;;;6.55;1.77;;;8.40;99.90;;;;;;5076215;28;20382;-68
2023/02/04 03:55:34;;;;;;;7.00;1.85;;;8.40;99.90;;;;;;5093502;28;20131;-68
2023/02/04 03:58:00;;;;;;;9.07;1.90;;;8.30;99.90;;;;;;5094223;28;20024;-68
2023/02/04 04:00:26;;;;;;;6.90;1.92;;;8.30;99.90;;;;;;5093559;28;20073;-68
2023/02/04 04:02:51;;;;;;;7.55;1.65;;;8.30;99.90;;;;;;5076048;28;20024;-68
2023/02/04 04:05:17;;;;;;;8.27;2.00;;;8.30;99.90;;;;;;5076042;28;20461;-68
2023/02/04 04:07:43;;;;;;;5.75;1.50;;;8.20;99.90;;;;;;5093235;28;20090;-68
2023/02/04 04:10:11;;;;;;;7.68;1.90;;;8.20;99.90;;;;;;5094005;28;20369;-68
2023/02/04 04:12:36;;;;;;;7.32;1.50;;;8.10;99.90;;;;;;5093201;28;20020;-68
2023/02/04 04:15:03;;;;;;;4.43;1.65;;;8.10;99.90;;;;;;5075799;28;20020;-68
2023/02/04 04:17:29;;;;;;;6.03;1.63;;;8.10;99.90;;;;;;5093204;28;20057;-69
2023/02/04 04:19:54;;;;;;;9.40;1.80;;;8.10;99.90;;;;;;5075383;28;20450;-68
2023/02/04 04:22:20;;;;;;;6.45;1.55;;;8.10;99.90;;;;;;5075698;28;20039;-70
2023/02/04 04:24:45;;;;;;;100.20;40.45;;;8.00;99.90;;;;;;5093100;28;20493;-68
2023/02/04 04:27:11;;;;;;;13.52;6.45;;;7.90;99.90;;;;;;5075594;28;20030;-68
2023/02/04 04:29:36;;;;;;;8.23;3.58;;;7.90;99.90;;;;;;5074615;28;20480;-68
2023/02/04 04:32:04;;;;;;;8.02;2.35;;;7.90;99.90;;;;;;5075434;28;20385;-68
2023/02/04 04:34:29;;;;;;;8.77;2.13;;;7.90;99.90;;;;;;5074591;28;20034;-68
2023/02/04 04:36:55;;;;;;;9.38;2.22;;;7.90;99.90;;;;;;5074813;28;20024;-68
2023/02/04 04:39:21;;;;;;;5.72;1.70;;;7.90;99.90;;;;;;5075308;28;20038;-68
2023/02/04 04:41:46;;;;;;;9.35;1.90;;;7.90;99.90;;;;;;5074598;28;20089;-68
2023/02/04 04:44:12;;;;;;;10.00;1.70;;;7.90;99.90;;;;;;5075151;28;20380;-71
2023/02/04 04:46:39;;;;;;;3.97;1.50;;;7.90;99.90;;;;;;5092595;28;20032;-71
2023/02/04 04:49:05;;;;;;;3.90;1.42;;;7.90;99.90;;;;;;5074979;28;20063;-71
2023/02/04 04:51:31;;;;;;;6.55;1.50;;;7.90;99.90;;;;;;5074260;28;20032;-71
2023/02/04 04:53:57;;;;;;;8.38;1.70;;;7.90;99.90;;;;;;5075057;28;20388;-71
2023/02/04 04:56:23;;;;;;;6.40;1.38;;;7.90;99.90;;;;;;5092874;28;20461;-74
2023/02/04 04:58:49;;;;;;;4.93;1.77;;;7.90;99.90;;;;;;5074551;28;20032;-71
2023/02/04 05:01:14;;;;;;;6.47;1.40;;;7.90;99.90;;;;;;5093145;28;20089;-71
2023/02/04 05:03:40;;;;;;;9.05;1.13;;;7.90;99.90;;;;;;5074122;28;20023;-71
2023/02/04 05:06:07;;;;;;;6.78;1.30;;;7.90;99.90;;;;;;5093054;28;20020;-71
2023/02/04 05:08:34;;;;;;;6.93;1.42;;;7.90;99.90;;;;;;5074035;28;20028;-71
2023/02/04 05:11:03;;;;;;;6.72;1.40;;;7.90;99.90;;;;;;5074834;28;20028;-71
2023/02/04 05:13:28;;;;;;;5.65;1.30;;;7.90;99.90;;;;;;5073863;28;20028;-71
2023/02/04 05:15:54;;;;;;;3.80;1.20;;;7.80;99.90;;;;;;5092769;28;20030;-71
2023/02/04 05:18:19;;;;;;;2.40;1.08;;;7.80;99.90;;;;;;5074520;28;20093;-71
2023/02/04 05:20:45;;;;;;;2.63;1.30;;;7.80;99.90;;;;;;5073487;28;20066;-70
2023/02/04 05:23:11;;;;;;;7.68;1.50;;;7.80;99.90;;;;;;5074604;28;20384;-70
2023/02/04 05:25:37;;;;;;;6.93;1.42;;;7.80;99.90;;;;;;5073696;28;20054;-70
2023/02/04 05:28:02;;;;;;;2.38;1.13;;;7.80;99.90;;;;;;5074291;28;20513;-70
2023/02/04 05:30:28;;;;;;;5.72;1.33;;;7.80;99.90;;;;;;5091533;28;20058;-74
2023/02/04 05:32:54;;;;;;;4.25;1.27;;;7.90;99.90;;;;;;5092576;28;20453;-70
2023/02/04 05:35:19;;;;;;;5.45;1.25;;;7.80;99.90;;;;;;5092510;28;20028;-70
2023/02/04 05:37:45;;;;;;;3.10;1.40;;;7.80;99.90;;;;;;5073530;28;20510;-70
2023/02/04 05:40:11;;;;;;;3.85;1.20;;;7.80;99.90;;;;;;5092355;28;20024;-71
2023/02/04 05:42:36;;;;;;;5.35;1.20;;;7.80;99.90;;;;;;5073473;28;20020;-71
2023/02/04 05:45:03;;;;;;;3.38;1.33;;;7.80;99.90;;;;;;5074305;28;20093;-71
2023/02/04 05:47:28;;;;;;;5.60;1.40;;;7.80;99.90;;;;;;5073272;28;20342;-73
2023/02/04 05:49:54;;;;;;;3.03;0.98;;;7.80;99.90;;;;;;5091901;28;20520;-71
2023/02/04 05:52:20;;;;;;;6.30;1.55;;;7.80;99.90;;;;;;5074094;28;20028;-71
2023/02/04 05:54:45;;;;;;;4.50;1.23;;;7.80;99.90;;;;;;5073437;28;20388;-71
2023/02/04 05:57:11;;;;;;;6.68;1.30;;;7.80;99.90;;;;;;5074245;28;20465;-70
2023/02/04 05:59:37;;;;;;;3.58;1.20;;;7.80;99.90;;;;;;5091479;28;20093;-71
2023/02/04 06:02:02;;;;;;;8.35;1.20;;;7.80;99.90;;;;;;5073813;28;20031;-71
2023/02/04 06:04:28;;;;;;;5.22;1.50;;;7.80;99.90;;;;;;5073691;28;20035;-73
2023/02/04 06:06:53;;;;;;;4.63;1.45;;;7.80;99.90;;;;;;5091877;28;20035;-71
2023/02/04 06:09:19;;;;;;;2.72;1.30;;;7.80;99.90;;;;;;5073991;28;20135;-71
2023/02/04 06:11:45;;;;;;;7.13;1.25;;;7.90;99.90;;;;;;5073305;28;20415;-71
2023/02/04 06:14:10;;;;;;;2.28;0.93;;;7.80;99.90;;;;;;5074168;28;20028;-71
2023/02/04 06:16:36;;;;;;;2.80;1.15;;;7.80;99.90;;;;;;5091197;28;20036;-70
2023/02/04 06:19:02;;;;;;;3.95;1.20;;;7.90;99.90;;;;;;5073960;28;20036;-71
2023/02/04 06:21:27;;;;;;;6.32;1.23;;;7.90;99.90;;;;;;5092009;28;20079;-74
2023/02/04 06:23:53;;;;;;;2.78;0.90;;;7.80;99.90;;;;;;5073354;28;20070;-71
2023/02/04 06:26:18;;;;;;;2.85;0.90;;;7.80;99.90;;;;;;5073655;28;20093;-71
2023/02/04 06:28:44;;;;;;;4.07;1.10;;;7.80;99.90;;;;;;5073057;28;20028;-70
2023/02/04 06:31:09;;;;;;;2.80;1.33;;;7.80;99.90;;;;;;5092342;28;20036;-70
2023/02/04 06:33:36;;;;;;;6.28;1.55;;;7.80;99.90;;;;;;5091148;28;20448;-71
2023/02/04 06:36:03;;;;;;;4.10;1.75;;;7.80;99.90;;;;;;5073641;28;20050;-71
2023/02/04 06:38:28;;;;;;;3.00;1.40;;;7.80;99.90;;;;;;5073365;28;20491;-74
2023/02/04 06:40:54;;;;;;;3.42;1.40;;;7.70;99.90;;;;;;5091330;28;20032;-71
2023/02/04 06:43:21;;;;;;;4.75;1.70;;;7.80;99.90;;;;;;5091781;28;20419;-71
2023/02/04 06:45:47;;;;;;;2.95;1.13;;;7.80;99.90;;;;;;5091210;28;20461;-71
2023/02/04 06:48:12;;;;;;;5.30;1.42;;;7.80;99.90;;;;;;5071122;28;20043;-75
2023/02/04 06:50:38;;;;;;;4.90;1.80;;;7.80;99.90;;;;;;5083169;28;20040;-71
2023/02/04 06:53:03;;;;;;;6.32;1.75;;;7.80;99.90;;;;;;5095269;28;20074;-71
2023/02/04 06:55:29;;;;;;;3.80;1.38;;;7.80;99.90;;;;;;5090753;28;20427;-73
2023/02/04 06:57:55;;;;;;;4.32;1.90;;;7.80;99.90;;;;;;5106933;28;20095;-70
2023/02/04 07:00:20;;;;;;;5.40;1.60;;;7.80;99.90;;;;;;5083346;28;20085;-70
2023/02/04 07:02:46;;;;;;;3.88;1.30;;;7.70;99.90;;;;;;5084803;28;20024;-70
2023/02/04 07:05:12;;;;;;;3.20;1.50;;;7.80;99.90;;;;;;5095247;28;20024;-70
2023/02/04 07:07:37;;;;;;;2.70;1.45;;;7.80;99.90;;;;;;5107217;28;20028;-71
2023/02/04 07:10:03;;;;;;;3.78;1.63;;;7.70;99.90;;;;;;5091146;28;20024;-70
2023/02/04 07:12:29;;;;;;;5.95;1.75;;;7.70;99.90;;;;;;5085954;28;20026;-73
2023/02/04 07:14:54;;;;;;;3.33;1.60;;;7.60;99.90;;;;;;5101855;28;20024;-70
2023/02/04 07:17:20;;;;;;;5.38;1.42;;;7.70;99.90;;;;;;5093263;28;20035;-70
2023/02/04 07:19:46;;;;;;;5.28;1.60;;;7.60;99.90;;;;;;5096947;28;20477;-71
2023/02/04 07:22:11;;;;;;;3.30;1.48;;;7.60;99.90;;;;;;5096856;28;20042;-71
2023/02/04 07:24:37;;;;;;;6.28;1.70;;;7.60;99.90;;;;;;5085651;28;20046;-71
2023/02/04 07:27:02;;;;;;;4.25;1.60;;;7.60;99.90;;;;;;5090534;28;20057;-70
2023/02/04 07:29:28;;;;;;;7.07;2.25;;;7.60;99.90;;;;;;5097667;28;20031;-71
2023/02/04 07:31:53;;;;;;;5.55;1.60;;;7.70;99.90;;;;;;5109975;28;20462;-71
2023/02/04 07:34:19;;;;;;;5.07;1.63;;;7.60;99.90;;;;;;5084428;28;20024;-71
2023/02/04 07:36:45;;;;;;;3.92;1.85;;;7.60;99.90;;;;;;5084285;28;20047;-71
2023/02/04 07:39:11;;;;;;;5.47;1.80;;;7.60;99.90;;;;;;5091365;28;20035;-72
2023/02/04 07:41:37;;;;;;;6.13;2.17;;;7.60;99.90;;;;;;5096989;28;20095;-71
2023/02/04 07:44:03;;;;;;;3.40;1.60;;;7.60;99.90;;;;;;5104055;28;20395;-71
2023/02/04 07:46:29;;;;;;;5.13;1.45;;;7.60;99.90;;;;;;5104589;28;20067;-75
2023/02/04 07:48:55;;;;;;;4.30;1.85;;;7.60;99.90;;;;;;5092555;28;20052;-71
2023/02/04 07:51:21;;;;;;;5.82;1.75;;;7.70;99.90;;;;;;5110041;28;20084;-68
2023/02/04 07:53:46;;;;;;;3.22;1.88;;;7.70;99.90;;;;;;5075335;28;20055;-71
2023/02/04 07:56:12;;;;;;;5.13;2.00;;;7.70;99.90;;;;;;5075585;28;20024;-71
2023/02/04 07:58:37;;;;;;;4.45;1.80;;;7.70;99.90;;;;;;5085631;28;20033;-71
2023/02/04 08:01:03;;;;;;;4.65;2.20;;;7.70;99.90;;;;;;5089334;28;20059;-70
2023/02/04 08:03:29;;;;;;;4.07;1.85;;;7.80;99.90;;;;;;5114191;28;20453;-74
2023/02/04 08:05:54;;;;;;;6.05;2.08;;;7.80;99.90;;;;;;5090634;28;20069;-71
2023/02/04 08:08:20;;;;;;;6.40;2.20;;;7.80;99.90;;;;;;5083348;28;20031;-71
2023/02/04 08:10:46;;;;;;;5.72;2.25;;;7.80;99.90;;;;;;5082194;28;20477;-71
2023/02/04 08:13:12;;;;;;;4.75;2.10;;;7.80;99.90;;;;;;5091657;28;20031;-70
2023/02/04 08:15:38;;;;;;;4.25;2.00;;;7.90;99.90;;;;;;5090756;28;20365;-71
2023/02/04 08:18:04;;;;;;;7.30;2.53;;;7.90;99.90;;;;;;5109293;28;20028;-72
2023/02/04 08:20:29;;;;;;;6.20;2.53;;;7.90;99.90;;;;;;5084127;28;20051;-74
2023/02/04 08:22:56;;;;;;;4.60;2.17;;;7.90;99.90;;;;;;5084927;28;20028;-70
2023/02/04 08:25:21;;;;;;;9.23;2.20;;;8.00;99.90;;;;;;5075150;28;20394;-71
2023/02/04 08:27:47;;;;;;;6.55;2.42;;;8.00;99.90;;;;;;5091954;28;20028;-71
2023/02/04 08:30:13;;;;;;;5.88;1.90;;;8.00;99.90;;;;;;5091571;28;20035;-72
2023/02/04 08:32:38;;;;;;;4.97;1.95;;;8.00;99.90;;;;;;5091182;28;20551;-71
2023/02/04 08:35:05;;;;;;;8.93;2.50;;;8.00;99.90;;;;;;5077721;28;20028;-70
2023/02/04 08:37:31;;;;;;;5.97;2.15;;;8.10;99.90;;;;;;5089327;28;20389;-74
2023/02/04 08:39:56;;;;;;;3.53;2.08;;;8.10;99.90;;;;;;5076932;28;20031;-71
2023/02/04 08:42:22;;;;;;;5.55;2.17;;;8.20;99.90;;;;;;5083354;28;20051;-71
2023/02/04 08:44:47;;;;;;;8.15;1.90;;;8.20;99.90;;;;;;5079559;28;20097;-71
2023/02/04 08:47:13;;;;;;;4.20;1.80;;;8.30;99.90;;;;;;5075786;28;20024;-70
2023/02/04 08:49:39;;;;;;;5.00;1.98;;;8.30;99.90;;;;;;5076833;28;20033;-72
2023/02/04 08:52:06;;;;;;;8.40;2.13;;;8.30;99.90;;;;;;5086858;28;20032;-71
2023/02/04 08:54:32;;;;;;;6.20;1.70;;;8.30;99.90;;;;;;5075358;28;20078;-71
2023/02/04 08:56:58;;;;;;;10.40;2.42;;;8.30;99.90;;;;;;5072045;28;20445;-71
2023/02/04 08:59:24;;;;;;;5.40;1.90;;;8.30;99.90;;;;;;5085928;28;20028;-74
2023/02/04 09:01:51;;;;;;;5.28;2.15;;;8.40;99.90;;;;;;5072875;28;20048;-74
2023/02/04 09:04:21;;;;;;;7.97;2.72;;;8.40;99.90;;;;;;5081101;28;20012;-74
2023/02/04 09:06:47;;;;;;;9.00;1.98;;;8.50;99.90;;;;;;5078220;28;20024;-75
2023/02/04 09:09:14;;;;;;;6.80;1.77;;;8.50;99.90;;;;;;5088631;28;20043;-75
2023/02/04 09:11:39;;;;;;;5.72;2.00;;;8.60;99.90;;;;;;5088799;28;20089;-74
2023/02/04 09:14:06;;;;;;;7.00;2.35;;;8.60;99.90;;;;;;5090087;28;20028;-74
2023/02/04 09:16:31;;;;;;;5.80;2.10;;;8.70;99.90;;;;;;5079804;28;20385;-77
2023/02/04 09:19:01;;;;;;;4.97;1.75;;;8.70;99.90;;;;;;5083109;28;20035;-74
2023/02/04 09:21:27;;;;;;;8.15;2.60;;;8.70;99.90;;;;;;5094942;28;20545;-74
2023/02/04 09:23:53;;;;;;;4.65;1.55;;;8.80;99.90;;;;;;5102931;28;20066;-74
2023/02/04 09:26:19;;;;;;;8.00;2.30;;;8.80;99.90;;;;;;5110504;28;20051;-73
2023/02/04 09:28:44;;;;;;;6.10;2.08;;;8.80;99.90;;;;;;5110573;28;20060;-74
2023/02/04 09:31:10;;;;;;;5.70;2.17;;;8.80;99.90;;;;;;5078542;28;20036;-73
2023/02/04 09:33:37;;;;;;;7.53;2.33;;;8.80;99.90;;;;;;5076055;28;20015;-73
2023/02/04 09:36:03;;;;;;;5.45;2.20;;;8.90;99.90;;;;;;5075493;28;20023;-73
2023/02/04 09:38:28;;;;;;;6.47;2.28;;;8.90;99.90;;;;;;5083849;28;20031;-72
2023/02/04 09:40:57;;;;;;;13.88;2.45;;;9.00;99.90;;;;;;5084749;28;20183;-74
2023/02/04 09:43:26;;;;;;;8.35;2.30;;;9.00;99.90;;;;;;5084794;28;20031;-75
2023/02/04 09:45:53;;;;;;;8.45;2.03;;;9.00;99.90;;;;;;5108425;28;20015;-75
2023/02/04 09:48:20;;;;;;;9.50;2.97;;;9.00;99.90;;;;;;5105393;28;20509;-73
2023/02/04 09:50:45;;;;;;;11.40;3.17;;;9.00;99.90;;;;;;5094211;28;20523;-73
2023/02/04 09:53:20;;;;;;;5.68;2.10;;;9.00;99.90;;;;;;5075030;28;20024;-72
2023/02/04 09:55:47;;;;;;;9.38;2.33;;;9.00;99.90;;;;;;5111410;28;20360;-72
2023/02/04 09:58:16;;;;;;;10.93;2.42;;;9.00;99.90;;;;;;5108340;28;20036;-73
2023/02/04 10:00:43;;;;;;;9.48;2.20;;;9.00;99.90;;;;;;5082753;28;20457;-72
2023/02/04 10:03:17;;;;;;;5.20;2.13;;;9.10;99.90;;;;;;5094011;28;20118;-72
2023/02/04 10:05:44;;;;;;;11.38;3.70;;;9.10;99.90;;;;;;5093610;28;20051;-72
2023/02/04 10:08:19;;;;;;;9.48;2.53;;;9.20;99.90;;;;;;5105942;28;20073;-72
2023/02/04 10:10:47;;;;;;;12.23;2.60;;;9.20;99.90;;;;;;5103212;28;20399;-72
2023/02/04 10:13:18;;;;;;;11.23;2.28;;;9.30;99.90;;;;;;5078349;28;20028;-72
2023/02/04 10:15:46;;;;;;;12.73;2.33;;;9.40;99.90;;;;;;5093142;28;20024;-72
2023/02/04 10:18:18;;;;;;;8.20;2.45;;;9.50;99.90;;;;;;5109923;28;20039;-72
2023/02/04 10:20:43;;;;;;;11.63;2.72;;;9.60;99.90;;;;;;5084252;28;20055;-73
2023/02/04 10:23:10;;;;;;;12.15;2.92;;;9.60;99.90;;;;;;5112144;28;20393;-72
2023/02/04 10:25:36;;;;;;;12.95;2.80;;;9.60;99.90;;;;;;5076431;28;20035;-75
2023/02/04 10:28:02;;;;;;;10.32;2.55;;;9.60;99.90;;;;;;5088262;28;20033;-72
2023/02/04 10:30:40;;;;;;;9.35;2.40;;;9.70;99.90;;;;;;5073530;28;20032;-72
2023/02/04 10:33:13;;;;;;;9.10;3.33;;;9.70;99.90;;;;;;5087932;28;20028;-72
2023/02/04 10:35:47;;;;;;;10.30;2.35;;;9.70;99.90;;;;;;5093497;28;20020;-73
2023/02/04 10:38:13;;;;;;;14.93;2.92;;;9.70;99.90;;;;;;5084746;28;20024;-73
2023/02/04 10:40:39;;;;;;;15.07;2.70;;;9.70;99.90;;;;;;5115513;28;20051;-72
2023/02/04 10:43:10;;;;;;;12.40;2.60;;;9.70;99.90;;;;;;5083408;28;20023;-72
2023/02/04 10:45:36;;;;;;;10.88;2.38;;;9.70;99.90;;;;;;5093407;28;20030;-76
2023/02/04 10:48:02;;;;;;;14.27;3.10;;;9.80;99.90;;;;;;5082253;28;20032;-73
2023/02/04 10:50:29;;;;;;;12.65;2.72;;;9.80;99.90;;;;;;5097329;28;20176;-72
2023/02/04 10:54:28;;;;;;;11.45;2.40;;;9.70;99.90;;;;;;5083878;28;20032;-72
2023/02/04 10:55:44;;;;;;;11.20;3.03;;;9.70;99.90;;;;;;5110812;28;20059;-73
2023/02/04 10:58:23;;;;;;;14.48;3.08;;;9.70;99.90;;;;;;5102126;28;20031;-72
2023/02/04 11:00:49;;;;;;;9.90;2.90;;;9.70;99.90;;;;;;5084492;28;20028;-72
2023/02/04 11:03:25;;;;;;;10.90;2.63;;;9.70;99.90;;;;;;5110440;28;20027;-72
2023/02/04 11:05:54;;;;;;;9.60;2.60;;;9.70;99.90;;;;;;5076377;28;20028;-72
2023/02/04 11:08:28;;;;;;;9.18;2.72;;;9.80;99.90;;;;;;5084906;28;20034;-72
2023/02/04 11:11:04;;;;;;;12.20;2.60;;;9.80;99.90;;;;;;5083542;28;20074;-72
2023/02/04 11:13:50;;;;;;;9.40;2.72;;;9.80;99.90;;;;;;5093452;28;20047;-73
2023/02/04 11:16:16;;;;;;;12.60;2.25;;;9.90;99.90;;;;;;5084164;28;20069;-72
2023/02/04 11:18:53;;;;;;;11.30;2.70;;;9.90;99.90;;;;;;5110037;28;20063;-73
2023/02/04 11:21:28;;;;;;;13.38;3.55;;;10.00;99.90;;;;;;5080308;28;20173;-72
2023/02/04 11:24:03;;;;;;;9.20;2.70;;;10.00;99.90;;;;;;5079975;28;20019;-74
2023/02/04 11:27:04;;;;;;;10.38;2.45;;;10.00;99.90;;;;;;5096909;28;20499;-72
2023/02/04 11:29:35;;;;;;;15.25;2.58;;;10.10;99.90;;;;;;5074756;28;20177;-73
2023/02/04 11:32:03;;;;;;;12.98;3.00;;;10.10;99.90;;;;;;5091528;28;20073;-72
2023/02/04 11:34:31;;;;;;;9.73;2.80;;;10.10;99.90;;;;;;5085586;28;20069;-73
2023/02/04 11:37:14;;;;;;;15.52;2.95;;;10.00;99.90;;;;;;5082830;28;20123;-72
2023/02/04 11:39:41;;;;;;;15.68;2.78;;;9.90;99.90;;;;;;5092473;28;20024;-73
2023/02/04 11:42:16;;;;;;;17.02;3.22;;;9.80;99.90;;;;;;5082591;28;20020;-72
2023/02/04 11:44:47;;;;;;;7.60;2.45;;;9.80;99.90;;;;;;5094170;28;20027;-72
2023/02/04 11:47:13;;;;;;;8.10;2.30;;;9.70;99.90;;;;;;5079769;28;20032;-73
2023/02/04 11:49:38;;;;;;;12.05;2.60;;;9.60;99.90;;;;;;5081997;28;20032;-72
2023/02/04 11:52:13;;;;;;;11.35;2.58;;;9.50;99.90;;;;;;5096360;28;20107;-74
2023/02/04 11:54:38;;;;;;;14.18;3.05;;;9.40;99.90;;;;;;5095624;28;20057;-72
2023/02/04 11:57:04;;;;;;;15.52;3.25;;;9.30;99.90;;;;;;5082081;28;20112;-73
2023/02/04 11:59:30;;;;;;;17.00;2.45;;;9.30;99.90;;;;;;5092563;28;20031;-73
2023/02/04 12:02:16;;;;;;;8.88;2.05;;;9.30;99.90;;;;;;5098182;28;20486;-73
2023/02/04 12:05:07;;;;;;;14.32;2.25;;;9.30;99.90;;;;;;5083899;28;20032;-72
2023/02/04 12:07:33;;;;;;;8.50;2.00;;;9.30;99.90;;;;;;5092534;28;20028;-73
2023/02/04 12:10:13;;;;;;;12.77;2.15;;;9.30;99.90;;;;;;5080379;28;20488;-73
2023/02/04 12:12:49;;;;;;;13.82;1.90;;;9.40;99.90;;;;;;5084696;28;20032;-73
2023/02/04 12:15:20;;;;;;;12.05;2.53;;;9.40;99.90;;;;;;5091330;28;20028;-72
2023/02/04 12:17:46;;;;;;;7.77;1.77;;;9.50;99.90;;;;;;5078480;28;20032;-72
2023/02/04 12:20:14;;;;;;;15.25;2.28;;;9.70;99.90;;;;;;5082835;28;20279;-72
2023/02/04 12:22:40;;;;;;;9.55;1.95;;;9.90;99.90;;;;;;5095063;28;20110;-72
2023/02/04 12:25:06;;;;;;;11.27;2.08;;;10.20;99.90;;;;;;5081148;28;20177;-72
2023/02/04 12:27:31;;;;;;;9.73;2.30;;;10.30;99.90;;;;;;5111698;28;20529;-73
2023/02/04 12:29:57;;;;;;;6.22;1.55;;;10.50;99.90;;;;;;5084665;28;20138;-72
2023/02/04 12:32:22;;;;;;;12.20;2.13;;;10.70;99.90;;;;;;5113668;28;20070;-72
2023/02/04 12:34:48;;;;;;;7.10;1.98;;;10.60;99.90;;;;;;5100670;28;20104;-72
2023/02/04 12:37:14;;;;;;;7.07;1.65;;;10.40;99.90;;;;;;5090835;28;20028;-73
2023/02/04 12:39:39;;;;;;;14.82;2.72;;;10.10;99.90;;;;;;5077796;28;20024;-73
2023/02/04 12:42:05;;;;;;;9.35;1.90;;;10.00;99.90;;;;;;5089401;28;20016;-73
2023/02/04 12:44:30;;;;;;;16.27;2.50;;;9.90;99.90;;;;;;5075147;28;20111;-72
2023/02/04 12:46:56;;;;;;;7.43;1.90;;;10.00;99.90;;;;;;5074024;28;20109;-73
2023/02/04 12:49:23;;;;;;;8.63;2.00;;;10.30;99.90;;;;;;5078819;28;20059;-72
2023/02/04 12:51:50;;;;;;;7.45;2.00;;;10.60;99.90;;;;;;5094441;28;20449;-72
2023/02/04 12:54:16;;;;;;;9.75;1.85;;;11.10;99.90;;;;;;5087178;28;20129;-73